sensor_id;sensor_type;location;lat;lon;timestamp;pressure;altitude;pressure_sealevel;temperature;humidity
31911;BME280;18457;52.432;16.914;2023-04-08T00:01:05;100879.00;;;7.83;100.00
31911;BME280;18457;52.432;16.914;2023-04-08T00:03:37;100878.64;;;7.83;100.00
31911;BME280;18457;52.432;16.914;2023-04-08T00:06:09;100877.41;;;7.79;100.00
31911;BME280;18457;52.432;16.914;2023-04-08T00:08:41;100880.29;;;7.78;100.00
31911;BME280;18457;52.432;16.914;2023-04-08T00:11:13;100883.54;;;7.75;100.00
31911;BME280;18457;52.432;16.914;2023-04-08T00:13:45;100877.69;;;7.61;100.00
31911;BME280;18457;52.432;16.914;2023-04-08T00:16:17;100886.69;;;7.57;100.00
31911;BME280;18457;52.432;16.914;2023-04-08T00:18:48;100890.99;;;7.57;100.00
31911;BME280;18457;52.432;16.914;2023-04-08T00:21:21;100904.14;;;7.53;100.00
31911;BME280;18457;52.432;16.914;2023-04-08T00:23:53;100911.88;;;7.50;100.00
31911;BME280;18457;52.432;16.914;2023-04-08T00:26:25;100906.83;;;7.55;100.00
31911;BME280;18457;52.432;16.914;2023-04-08T00:28:57;100904.85;;;7.57;100.00
31911;BME280;18457;52.432;16.914;2023-04-08T00:31:28;100912.98;;;7.45;100.00
31911;BME280;18457;52.432;16.914;2023-04-08T00:34:01;100913.86;;;7.50;100.00
31911;BME280;18457;52.432;16.914;2023-04-08T00:36:33;100917.81;;;7.53;100.00
31911;BME280;18457;52.432;16.914;2023-04-08T00:39:06;100917.08;;;7.55;100.00
31911;BME280;18457;52.432;16.914;2023-04-08T00:41:38;100918.86;;;7.55;100.00
31911;BME280;18457;52.432;16.914;2023-04-08T00:44:09;100914.41;;;7.49;100.00
31911;BME280;18457;52.432;16.914;2023-04-08T00:46:41;100915.34;;;7.38;100.00
31911;BME280;18457;52.432;16.914;2023-04-08T00:49:14;100916.25;;;7.30;100.00
31911;BME280;18457;52.432;16.914;2023-04-08T00:51:47;100922.03;;;7.20;100.00
31911;BME280;18457;52.432;16.914;2023-04-08T00:54:19;100921.31;;;7.19;100.00
31911;BME280;18457;52.432;16.914;2023-04-08T00:56:51;100922.74;;;7.22;100.00
31911;BME280;18457;52.432;16.914;2023-04-08T00:59:23;100924.55;;;7.18;100.00
31911;BME280;18457;52.432;16.914;2023-04-08T01:02:01;100919.88;;;7.21;100.00
31911;BME280;18457;52.432;16.914;2023-04-08T01:04:45;100922.77;;;7.13;100.00
31911;BME280;18457;52.432;16.914;2023-04-08T01:07:26;100927.25;;;7.19;100.00
31911;BME280;18457;52.432;16.914;2023-04-08T01:10:04;100930.66;;;7.16;100.00
31911;BME280;18457;52.432;16.914;2023-04-08T01:12:41;100931.21;;;7.13;100.00
31911;BME280;18457;52.432;16.914;2023-04-08T01:15:14;100933.20;;;7.05;100.00
31911;BME280;18457;52.432;16.914;2023-04-08T01:17:48;100936.61;;;7.03;100.00
31911;BME280;18457;52.432;16.914;2023-04-08T01:20:21;100940.40;;;6.96;100.00
31911;BME280;18457;52.432;16.914;2023-04-08T01:23:02;100940.93;;;6.99;100.00
31911;BME280;18457;52.432;16.914;2023-04-08T01:28:10;100944.16;;;7.00;100.00
31911;BME280;18457;52.432;16.914;2023-04-08T01:30:43;100948.11;;;7.00;100.00
31911;BME280;18457;52.432;16.914;2023-04-08T01:33:18;100950.45;;;7.01;100.00
31911;BME280;18457;52.432;16.914;2023-04-08T01:35:51;100950.10;;;6.95;100.00
31911;BME280;18457;52.432;16.914;2023-04-08T01:38:26;100948.83;;;6.93;100.00
31911;BME280;18457;52.432;16.914;2023-04-08T01:40:59;100951.35;;;6.91;100.00
31911;BME280;18457;52.432;16.914;2023-04-08T01:43:37;100949.02;;;6.89;100.00
31911;BME280;18457;52.432;16.914;2023-04-08T01:46:10;100954.59;;;6.92;100.00
31911;BME280;18457;52.432;16.914;2023-04-08T01:48:44;100960.15;;;6.88;100.00
31911;BME280;18457;52.432;16.914;2023-04-08T01:51:18;100964.10;;;6.89;100.00
31911;BME280;18457;52.432;16.914;2023-04-08T01:53:50;100964.47;;;6.86;100.00
31911;BME280;18457;52.432;16.914;2023-04-08T01:56:24;100961.95;;;6.83;100.00
31911;BME280;18457;52.432;16.914;2023-04-08T01:58:59;100964.10;;;6.78;100.00
31911;BME280;18457;52.432;16.914;2023-04-08T02:01:33;100965.54;;;6.80;100.00
31911;BME280;18457;52.432;16.914;2023-04-08T02:04:06;100973.80;;;6.79;100.00
31911;BME280;18457;52.432;16.914;2023-04-08T02:06:38;100981.69;;;6.76;100.00
31911;BME280;18457;52.432;16.914;2023-04-08T02:09:11;100985.11;;;6.76;100.00
31911;BME280;18457;52.432;16.914;2023-04-08T02:11:43;100987.43;;;6.69;100.00
31911;BME280;18457;52.432;16.914;2023-04-08T02:14:17;100990.30;;;6.65;100.00
31911;BME280;18457;52.432;16.914;2023-04-08T02:16:53;100996.04;;;6.55;100.00
31911;BME280;18457;52.432;16.914;2023-04-08T02:19:31;100993.70;;;6.52;100.00
31911;BME280;18457;52.432;16.914;2023-04-08T02:22:11;100998.35;;;6.49;100.00
31911;BME280;18457;52.432;16.914;2023-04-08T02:24:46;100999.42;;;6.48;100.00
31911;BME280;18457;52.432;16.914;2023-04-08T02:27:19;100998.52;;;6.46;100.00
31911;BME280;18457;52.432;16.914;2023-04-08T02:29:54;100998.52;;;6.43;100.00
31911;BME280;18457;52.432;16.914;2023-04-08T02:32:29;101006.25;;;6.45;100.00
31911;BME280;18457;52.432;16.914;2023-04-08T02:35:03;101009.30;;;6.45;100.00
31911;BME280;18457;52.432;16.914;2023-04-08T02:37:35;101016.82;;;6.41;100.00
31911;BME280;18457;52.432;16.914;2023-04-08T02:40:23;101025.80;;;6.40;100.00
31911;BME280;18457;52.432;16.914;2023-04-08T02:42:55;101025.59;;;6.32;100.00
31911;BME280;18457;52.432;16.914;2023-04-08T02:45:31;101023.06;;;6.26;100.00
31911;BME280;18457;52.432;16.914;2023-04-08T02:48:04;101033.11;;;6.27;100.00
31911;BME280;18457;52.432;16.914;2023-04-08T02:50:36;101030.03;;;6.21;100.00
31911;BME280;18457;52.432;16.914;2023-04-08T02:53:09;101037.57;;;6.22;100.00
31911;BME280;18457;52.432;16.914;2023-04-08T02:55:41;101041.50;;;6.12;100.00
31911;BME280;18457;52.432;16.914;2023-04-08T02:58:13;101041.27;;;6.04;100.00
31911;BME280;18457;52.432;16.914;2023-04-08T03:00:45;101051.87;;;6.07;100.00
31911;BME280;18457;52.432;16.914;2023-04-08T03:03:17;101052.23;;;6.08;100.00
31911;BME280;18457;52.432;16.914;2023-04-08T03:05:49;101057.80;;;6.10;100.00
31911;BME280;18457;52.432;16.914;2023-04-08T03:08:21;101062.63;;;6.07;100.00
31911;BME280;18457;52.432;16.914;2023-04-08T03:10:53;101063.30;;;6.01;100.00
31911;BME280;18457;52.432;16.914;2023-04-08T03:13:24;101064.35;;;5.94;100.00
31911;BME280;18457;52.432;16.914;2023-04-08T03:15:56;101071.11;;;5.85;100.00
31911;BME280;18457;52.432;16.914;2023-04-08T03:18:28;101071.65;;;5.85;100.00
31911;BME280;18457;52.432;16.914;2023-04-08T03:21:00;101074.34;;;5.84;100.00
31911;BME280;18457;52.432;16.914;2023-04-08T03:23:32;101076.50;;;5.86;100.00
31911;BME280;18457;52.432;16.914;2023-04-08T03:26:04;101077.56;;;5.85;100.00
31911;BME280;18457;52.432;16.914;2023-04-08T03:28:36;101081.51;;;5.86;100.00
31911;BME280;18457;52.432;16.914;2023-04-08T03:31:08;101074.33;;;5.84;100.00
31911;BME280;18457;52.432;16.914;2023-04-08T03:33:40;101079.16;;;5.86;100.00
31911;BME280;18457;52.432;16.914;2023-04-08T03:36:13;101082.41;;;5.86;100.00
31911;BME280;18457;52.432;16.914;2023-04-08T03:38:45;101082.69;;;5.78;100.00
31911;BME280;18457;52.432;16.914;2023-04-08T03:41:18;101078.35;;;5.72;100.00
31911;BME280;18457;52.432;16.914;2023-04-08T03:43:50;101079.63;;;5.77;100.00
31911;BME280;18457;52.432;16.914;2023-04-08T03:46:22;101079.99;;;5.77;100.00
31911;BME280;18457;52.432;16.914;2023-04-08T03:48:54;101082.38;;;5.82;100.00
31911;BME280;18457;52.432;16.914;2023-04-08T03:51:26;101081.98;;;5.78;100.00
31911;BME280;18457;52.432;16.914;2023-04-08T03:53:58;101087.86;;;5.75;100.00
31911;BME280;18457;52.432;16.914;2023-04-08T03:56:30;101087.70;;;5.75;100.00
31911;BME280;18457;52.432;16.914;2023-04-08T03:59:02;101087.68;;;5.73;100.00
31911;BME280;18457;52.432;16.914;2023-04-08T04:01:34;101091.55;;;5.63;100.00
31911;BME280;18457;52.432;16.914;2023-04-08T04:04:06;101097.63;;;5.61;100.00
31911;BME280;18457;52.432;16.914;2023-04-08T04:06:38;101097.51;;;5.67;100.00
31911;BME280;18457;52.432;16.914;2023-04-08T04:09:10;101098.36;;;5.64;100.00
31911;BME280;18457;52.432;16.914;2023-04-08T04:11:42;101104.43;;;5.59;100.00
31911;BME280;18457;52.432;16.914;2023-04-08T04:14:13;101102.65;;;5.59;100.00
31911;BME280;18457;52.432;16.914;2023-04-08T04:16:45;101100.19;;;5.67;100.00
31911;BME280;18457;52.432;16.914;2023-04-08T04:19:17;101098.42;;;5.73;100.00
31911;BME280;18457;52.432;16.914;2023-04-08T04:21:49;101100.59;;;5.75;100.00
31911;BME280;18457;52.432;16.914;2023-04-08T04:24:21;101100.98;;;5.79;100.00
31911;BME280;18457;52.432;16.914;2023-04-08T04:26:53;101105.45;;;5.77;100.00
31911;BME280;18457;52.432;16.914;2023-04-08T04:29:26;101113.29;;;5.71;100.00
31911;BME280;18457;52.432;16.914;2023-04-08T04:31:57;101120.41;;;5.62;100.00
31911;BME280;18457;52.432;16.914;2023-04-08T04:34:29;101123.02;;;5.52;100.00
31911;BME280;18457;52.432;16.914;2023-04-08T04:37:01;101129.60;;;5.47;100.00
31911;BME280;18457;52.432;16.914;2023-04-08T04:39:33;101133.52;;;5.42;100.00
31911;BME280;18457;52.432;16.914;2023-04-08T04:42:05;101127.36;;;5.36;100.00
31911;BME280;18457;52.432;16.914;2023-04-08T04:44:37;101131.14;;;5.38;100.00
31911;BME280;18457;52.432;16.914;2023-04-08T04:47:08;101129.67;;;5.35;100.00
31911;BME280;18457;52.432;16.914;2023-04-08T04:49:40;101134.11;;;5.30;100.00
31911;BME280;18457;52.432;16.914;2023-04-08T04:52:12;101134.64;;;5.28;100.00
31911;BME280;18457;52.432;16.914;2023-04-08T04:54:44;101138.52;;;5.22;100.00
31911;BME280;18457;52.432;16.914;2023-04-08T04:57:17;101137.85;;;5.28;100.00
31911;BME280;18457;52.432;16.914;2023-04-08T04:59:49;101141.51;;;5.35;100.00
31911;BME280;18457;52.432;16.914;2023-04-08T05:02:21;101144.58;;;5.38;100.00
31911;BME280;18457;52.432;16.914;2023-04-08T05:04:53;101146.43;;;5.46;100.00
31911;BME280;18457;52.432;16.914;2023-04-08T05:07:25;101148.98;;;5.50;100.00
31911;BME280;18457;52.432;16.914;2023-04-08T05:09:57;101154.40;;;5.55;100.00
31911;BME280;18457;52.432;16.914;2023-04-08T05:12:29;101153.14;;;5.55;100.00
31911;BME280;18457;52.432;16.914;2023-04-08T05:15:01;101153.16;;;5.56;100.00
31911;BME280;18457;52.432;16.914;2023-04-08T05:17:33;101162.30;;;5.57;100.00
31911;BME280;18457;52.432;16.914;2023-04-08T05:20:07;101161.42;;;5.59;100.00
31911;BME280;18457;52.432;16.914;2023-04-08T05:22:39;101165.81;;;5.70;100.00
31911;BME280;18457;52.432;16.914;2023-04-08T05:25:12;101167.68;;;5.79;100.00
31911;BME280;18457;52.432;16.914;2023-04-08T05:27:44;101172.42;;;5.87;100.00
31911;BME280;18457;52.432;16.914;2023-04-08T05:30:16;101173.31;;;5.86;100.00
31911;BME280;18457;52.432;16.914;2023-04-08T05:32:48;101174.06;;;5.89;100.00
31911;BME280;18457;52.432;16.914;2023-04-08T05:35:20;101174.98;;;5.92;100.00
31911;BME280;18457;52.432;16.914;2023-04-08T05:37:52;101176.10;;;5.98;100.00
31911;BME280;18457;52.432;16.914;2023-04-08T05:40:24;101176.27;;;5.98;100.00
31911;BME280;18457;52.432;16.914;2023-04-08T05:42:56;101179.90;;;6.02;100.00
31911;BME280;18457;52.432;16.914;2023-04-08T05:45:30;101182.98;;;6.10;100.00
31911;BME280;18457;52.432;16.914;2023-04-08T05:48:02;101183.72;;;6.10;100.00
31911;BME280;18457;52.432;16.914;2023-04-08T05:50:36;101183.95;;;6.21;100.00
31911;BME280;18457;52.432;16.914;2023-04-08T05:53:09;101185.98;;;6.29;100.00
31911;BME280;18457;52.432;16.914;2023-04-08T05:55:41;101195.52;;;6.35;100.00
31911;BME280;18457;52.432;16.914;2023-04-08T05:58:13;101198.79;;;6.41;100.00
31911;BME280;18457;52.432;16.914;2023-04-08T06:00:45;101206.14;;;6.40;100.00
31911;BME280;18457;52.432;16.914;2023-04-08T06:03:17;101206.36;;;6.46;100.00
31911;BME280;18457;52.432;16.914;2023-04-08T06:05:50;101208.70;;;6.47;100.00
31911;BME280;18457;52.432;16.914;2023-04-08T06:08:23;101212.85;;;6.53;100.00
31911;BME280;18457;52.432;16.914;2023-04-08T06:10:55;101218.80;;;6.58;100.00
31911;BME280;18457;52.432;16.914;2023-04-08T06:13:27;101216.48;;;6.57;100.00
31911;BME280;18457;52.432;16.914;2023-04-08T06:16:04;101222.95;;;6.59;100.00
31911;BME280;18457;52.432;16.914;2023-04-08T06:18:40;101227.27;;;6.65;100.00
31911;BME280;18457;52.432;16.914;2023-04-08T06:21:12;101230.52;;;6.70;100.00
31911;BME280;18457;52.432;16.914;2023-04-08T06:23:44;101236.28;;;6.71;100.00
31911;BME280;18457;52.432;16.914;2023-04-08T06:26:16;101243.11;;;6.69;100.00
31911;BME280;18457;52.432;16.914;2023-04-08T06:28:47;101245.63;;;6.74;100.00
31911;BME280;18457;52.432;16.914;2023-04-08T06:31:20;101249.23;;;6.77;100.00
31911;BME280;18457;52.432;16.914;2023-04-08T06:33:52;101246.57;;;6.82;100.00
31911;BME280;18457;52.432;16.914;2023-04-08T06:36:25;101248.76;;;6.89;100.00
31911;BME280;18457;52.432;16.914;2023-04-08T06:38:56;101250.76;;;6.92;99.95
31911;BME280;18457;52.432;16.914;2023-04-08T06:41:28;101256.70;;;6.97;100.00
31911;BME280;18457;52.432;16.914;2023-04-08T06:44:04;101259.41;;;6.99;99.47
31911;BME280;18457;52.432;16.914;2023-04-08T06:46:36;101264.09;;;7.03;99.45
31911;BME280;18457;52.432;16.914;2023-04-08T06:49:08;101265.55;;;7.08;99.72
31911;BME280;18457;52.432;16.914;2023-04-08T06:51:40;101266.09;;;7.09;98.92
31911;BME280;18457;52.432;16.914;2023-04-08T06:54:12;101269.70;;;7.10;98.91
31911;BME280;18457;52.432;16.914;2023-04-08T06:56:43;101270.97;;;7.16;99.01
31911;BME280;18457;52.432;16.914;2023-04-08T06:59:17;101274.91;;;7.15;98.78
31911;BME280;18457;52.432;16.914;2023-04-08T07:01:48;101276.37;;;7.19;98.79
31911;BME280;18457;52.432;16.914;2023-04-08T07:04:21;101278.17;;;7.22;97.56
31911;BME280;18457;52.432;16.914;2023-04-08T07:06:53;101281.96;;;7.24;97.72
31911;BME280;18457;52.432;16.914;2023-04-08T07:09:25;101286.99;;;7.24;97.23
31911;BME280;18457;52.432;16.914;2023-04-08T07:11:57;101290.59;;;7.26;96.99
31911;BME280;18457;52.432;16.914;2023-04-08T07:14:29;101295.63;;;7.28;95.81
31911;BME280;18457;52.432;16.914;2023-04-08T07:17:01;101294.90;;;7.25;97.27
31911;BME280;18457;52.432;16.914;2023-04-08T07:19:33;101296.70;;;7.26;96.23
31911;BME280;18457;52.432;16.914;2023-04-08T07:22:05;101298.70;;;7.28;95.88
31911;BME280;18457;52.432;16.914;2023-04-08T07:24:37;101300.49;;;7.33;95.85
31911;BME280;18457;52.432;16.914;2023-04-08T07:27:12;101300.52;;;7.39;95.88
31911;BME280;18457;52.432;16.914;2023-04-08T07:29:44;101302.50;;;7.37;93.71
31911;BME280;18457;52.432;16.914;2023-04-08T07:32:15;101305.75;;;7.41;93.19
31911;BME280;18457;52.432;16.914;2023-04-08T07:34:48;101310.24;;;7.42;93.36
31911;BME280;18457;52.432;16.914;2023-04-08T07:37:19;101307.55;;;7.43;93.27
31911;BME280;18457;52.432;16.914;2023-04-08T07:39:51;101306.13;;;7.44;92.62
31911;BME280;18457;52.432;16.914;2023-04-08T07:42:23;101312.09;;;7.62;96.61
31911;BME280;18457;52.432;16.914;2023-04-08T07:44:57;101318.19;;;7.54;91.88
31911;BME280;18457;52.432;16.914;2023-04-08T07:47:28;101318.73;;;7.54;91.25
31911;BME280;18457;52.432;16.914;2023-04-08T07:50:00;101320.35;;;7.56;90.64
31911;BME280;18457;52.432;16.914;2023-04-08T07:52:32;101325.21;;;7.57;90.32
31911;BME280;18457;52.432;16.914;2023-04-08T07:55:06;101324.69;;;7.63;91.38
31911;BME280;18457;52.432;16.914;2023-04-08T07:57:38;101325.96;;;7.69;90.66
31911;BME280;18457;52.432;16.914;2023-04-08T08:00:11;101328.86;;;7.73;89.56
31911;BME280;18457;52.432;16.914;2023-04-08T08:02:50;101332.65;;;7.82;89.61
31911;BME280;18457;52.432;16.914;2023-04-08T08:05:22;101340.39;;;7.85;90.12
31911;BME280;18457;52.432;16.914;2023-04-08T08:07:54;101342.55;;;7.87;89.32
31911;BME280;18457;52.432;16.914;2023-04-08T08:10:26;101347.21;;;7.86;88.73
31911;BME280;18457;52.432;16.914;2023-04-08T08:12:58;101344.52;;;7.84;87.68
31911;BME280;18457;52.432;16.914;2023-04-08T08:15:30;101349.19;;;7.85;87.87
31911;BME280;18457;52.432;16.914;2023-04-08T08:18:02;101354.42;;;7.84;87.66
31911;BME280;18457;52.432;16.914;2023-04-08T08:20:35;101353.16;;;7.87;88.01
31911;BME280;18457;52.432;16.914;2023-04-08T08:23:07;101355.15;;;7.91;87.67
31911;BME280;18457;52.432;16.914;2023-04-08T08:25:39;101354.08;;;7.92;86.93
31911;BME280;18457;52.432;16.914;2023-04-08T08:28:11;101357.50;;;7.97;86.47
31911;BME280;18457;52.432;16.914;2023-04-08T08:30:43;101362.54;;;7.99;86.24
31911;BME280;18457;52.432;16.914;2023-04-08T08:33:15;101362.36;;;8.01;86.63
31911;BME280;18457;52.432;16.914;2023-04-08T08:35:47;101365.62;;;8.05;86.58
31911;BME280;18457;52.432;16.914;2023-04-08T08:38:19;101363.09;;;8.06;85.94
31911;BME280;18457;52.432;16.914;2023-04-08T08:40:55;101369.40;;;8.07;86.63
31911;BME280;18457;52.432;16.914;2023-04-08T08:43:29;101363.64;;;8.14;86.77
31911;BME280;18457;52.432;16.914;2023-04-08T08:46:03;101363.65;;;8.19;86.80
31911;BME280;18457;52.432;16.914;2023-04-08T08:48:36;101365.11;;;8.24;85.55
31911;BME280;18457;52.432;16.914;2023-04-08T08:51:10;101367.64;;;8.23;86.11
31911;BME280;18457;52.432;16.914;2023-04-08T08:53:41;101368.16;;;8.21;85.52
31911;BME280;18457;52.432;16.914;2023-04-08T08:56:15;101366.92;;;8.28;84.90
31911;BME280;18457;52.432;16.914;2023-04-08T08:58:48;101368.02;;;8.38;84.92
31911;BME280;18457;52.432;16.914;2023-04-08T09:01:34;101370.17;;;8.34;85.64
31911;BME280;18457;52.432;16.914;2023-04-08T09:04:12;101370.18;;;8.40;85.76
31911;BME280;18457;52.432;16.914;2023-04-08T09:06:47;101377.39;;;8.44;84.80
31911;BME280;18457;52.432;16.914;2023-04-08T09:09:20;101374.86;;;8.50;84.79
31911;BME280;18457;52.432;16.914;2023-04-08T09:12:03;101380.26;;;8.54;84.32
31911;BME280;18457;52.432;16.914;2023-04-08T09:14:35;101380.64;;;8.56;84.19
31911;BME280;18457;52.432;16.914;2023-04-08T09:17:07;101379.73;;;8.55;85.24
31911;BME280;18457;52.432;16.914;2023-04-08T09:19:39;101383.51;;;8.58;85.03
31911;BME280;18457;52.432;16.914;2023-04-08T09:22:12;101381.52;;;8.64;84.28
31911;BME280;18457;52.432;16.914;2023-04-08T09:24:44;101382.42;;;8.62;85.22
31911;BME280;18457;52.432;16.914;2023-04-08T09:27:16;101387.47;;;8.68;84.79
31911;BME280;18457;52.432;16.914;2023-04-08T09:30:17;101381.86;;;8.79;85.19
31911;BME280;18457;52.432;16.914;2023-04-08T09:32:50;101380.42;;;8.91;83.96
31911;BME280;18457;52.432;16.914;2023-04-08T09:35:23;101381.30;;;8.97;82.83
31911;BME280;18457;52.432;16.914;2023-04-08T09:37:55;101377.88;;;9.03;82.32
31911;BME280;18457;52.432;16.914;2023-04-08T09:40:28;101381.98;;;9.17;82.67
31911;BME280;18457;52.432;16.914;2023-04-08T09:43:05;101387.19;;;9.26;82.76
31911;BME280;18457;52.432;16.914;2023-04-08T09:45:41;101386.80;;;9.28;82.15
31911;BME280;18457;52.432;16.914;2023-04-08T09:48:19;101386.98;;;9.33;82.12
31911;BME280;18457;52.432;16.914;2023-04-08T09:50:58;101386.29;;;9.27;81.94
31911;BME280;18457;52.432;16.914;2023-04-08T09:53:33;101389.73;;;9.22;81.68
31911;BME280;18457;52.432;16.914;2023-04-08T09:56:09;101390.75;;;9.39;82.22
31911;BME280;18457;52.432;16.914;2023-04-08T09:58:48;101389.62;;;9.50;82.04
31911;BME280;18457;52.432;16.914;2023-04-08T10:01:27;101389.22;;;9.60;81.20
31911;BME280;18457;52.432;16.914;2023-04-08T10:04:00;101390.44;;;9.71;80.60
31911;BME280;18457;52.432;16.914;2023-04-08T10:06:37;101388.79;;;9.77;78.59
31911;BME280;18457;52.432;16.914;2023-04-08T10:09:09;101385.76;;;9.67;79.44
31911;BME280;18457;52.432;16.914;2023-04-08T10:11:42;101384.60;;;9.83;79.49
31911;BME280;18457;52.432;16.914;2023-04-08T10:14:14;101382.61;;;9.85;78.81
31911;BME280;18457;52.432;16.914;2023-04-08T10:16:46;101389.08;;;9.91;78.88
31911;BME280;18457;52.432;16.914;2023-04-08T10:19:44;101392.52;;;9.89;78.44
31911;BME280;18457;52.432;16.914;2023-04-08T10:22:46;101390.91;;;9.82;77.42
31911;BME280;18457;52.432;16.914;2023-04-08T10:25:30;101393.50;;;9.71;76.96
31911;BME280;18457;52.432;16.914;2023-04-08T10:28:25;101398.40;;;10.02;77.04
31911;BME280;18457;52.432;16.914;2023-04-08T10:30:59;101398.02;;;10.12;75.10
31911;BME280;18457;52.432;16.914;2023-04-08T10:33:33;101395.77;;;10.24;74.70
31911;BME280;18457;52.432;16.914;2023-04-08T10:36:11;101398.42;;;10.31;75.70
31911;BME280;18457;52.432;16.914;2023-04-08T10:38:45;101399.73;;;10.26;75.15
31911;BME280;18457;52.432;16.914;2023-04-08T10:41:24;101396.72;;;10.15;74.39
31911;BME280;18457;52.432;16.914;2023-04-08T10:43:56;101395.64;;;10.14;73.73
31911;BME280;18457;52.432;16.914;2023-04-08T10:46:29;101398.19;;;10.13;72.98
31911;BME280;18457;52.432;16.914;2023-04-08T10:49:08;101398.13;;;10.22;73.71
31911;BME280;18457;52.432;16.914;2023-04-08T10:51:40;101396.48;;;10.49;72.93
31911;BME280;18457;52.432;16.914;2023-04-08T10:54:15;101393.48;;;10.83;70.75
31911;BME280;18457;52.432;16.914;2023-04-08T10:56:49;101394.80;;;11.14;69.45
31911;BME280;18457;52.432;16.914;2023-04-08T10:59:30;101390.90;;;11.39;67.78
31911;BME280;18457;52.432;16.914;2023-04-08T11:02:03;101392.13;;;11.59;66.76
31911;BME280;18457;52.432;16.914;2023-04-08T11:04:41;101396.67;;;11.73;66.36
31911;BME280;18457;52.432;16.914;2023-04-08T11:07:14;101398.29;;;11.74;64.85
31911;BME280;18457;52.432;16.914;2023-04-08T11:09:47;101399.46;;;11.83;64.84
31911;BME280;18457;52.432;16.914;2023-04-08T11:12:19;101403.70;;;11.76;64.96
31911;BME280;18457;52.432;16.914;2023-04-08T11:14:52;101396.70;;;11.56;64.31
31911;BME280;18457;52.432;16.914;2023-04-08T11:17:24;101395.68;;;11.49;64.57
31911;BME280;18457;52.432;16.914;2023-04-08T11:19:56;101397.28;;;11.35;65.75
31911;BME280;18457;52.432;16.914;2023-04-08T11:22:32;101390.50;;;11.27;66.10
31911;BME280;18457;52.432;16.914;2023-04-08T11:25:08;101387.59;;;11.27;65.74
31911;BME280;18457;52.432;16.914;2023-04-08T11:27:45;101393.66;;;11.51;66.78
31911;BME280;18457;52.432;16.914;2023-04-08T11:30:16;101395.05;;;11.73;65.87
31911;BME280;18457;52.432;16.914;2023-04-08T11:32:48;101393.79;;;11.99;64.43
31911;BME280;18457;52.432;16.914;2023-04-08T11:35:22;101395.52;;;12.30;64.78
31911;BME280;18457;52.432;16.914;2023-04-08T11:37:54;101396.79;;;12.52;62.89
31911;BME280;18457;52.432;16.914;2023-04-08T11:40:27;101400.14;;;12.47;61.82
31911;BME280;18457;52.432;16.914;2023-04-08T11:43:01;101403.40;;;12.36;61.62
31911;BME280;18457;52.432;16.914;2023-04-08T11:45:40;101402.04;;;12.30;62.19
31911;BME280;18457;52.432;16.914;2023-04-08T11:48:13;101403.23;;;12.10;63.57
31911;BME280;18457;52.432;16.914;2023-04-08T11:50:46;101401.87;;;12.05;62.70
31911;BME280;18457;52.432;16.914;2023-04-08T11:53:18;101408.07;;;12.01;63.36
31911;BME280;18457;52.432;16.914;2023-04-08T11:55:51;101407.41;;;12.09;63.97
31911;BME280;18457;52.432;16.914;2023-04-08T11:58:29;101403.08;;;12.09;62.87
31911;BME280;18457;52.432;16.914;2023-04-08T12:01:02;101411.20;;;11.97;62.63
31911;BME280;18457;52.432;16.914;2023-04-08T12:03:34;101403.16;;;12.15;63.40
31911;BME280;18457;52.432;16.914;2023-04-08T12:06:06;101401.64;;;12.20;63.32
31911;BME280;18457;52.432;16.914;2023-04-08T12:08:39;101402.41;;;12.29;62.50
31911;BME280;18457;52.432;16.914;2023-04-08T12:11:11;101404.19;;;12.55;62.35
31911;BME280;18457;52.432;16.914;2023-04-08T12:13:49;101402.91;;;12.66;62.24
31911;BME280;18457;52.432;16.914;2023-04-08T12:16:23;101402.13;;;12.59;61.32
31911;BME280;18457;52.432;16.914;2023-04-08T12:18:55;101394.96;;;12.75;61.04
31911;BME280;18457;52.432;16.914;2023-04-08T12:21:27;101395.55;;;12.83;60.93
31911;BME280;18457;52.432;16.914;2023-04-08T12:23:59;101396.45;;;12.73;60.45
31911;BME280;18457;52.432;16.914;2023-04-08T12:26:31;101392.61;;;12.53;61.32
31911;BME280;18457;52.432;16.914;2023-04-08T12:29:03;101397.04;;;12.60;62.33
31911;BME280;18457;52.432;16.914;2023-04-08T12:31:35;101391.79;;;12.59;61.90
31911;BME280;18457;52.432;16.914;2023-04-08T12:34:07;101394.06;;;12.63;61.27
31911;BME280;18457;52.432;16.914;2023-04-08T12:36:38;101395.60;;;12.59;59.90
31911;BME280;18457;52.432;16.914;2023-04-08T12:39:11;101400.23;;;12.51;59.28
31911;BME280;18457;52.432;16.914;2023-04-08T12:41:43;101396.70;;;12.59;59.84
31911;BME280;18457;52.432;16.914;2023-04-08T12:44:15;101390.33;;;12.71;59.98
31911;BME280;18457;52.432;16.914;2023-04-08T12:46:47;101394.52;;;12.90;60.27
31911;BME280;18457;52.432;16.914;2023-04-08T12:49:19;101388.86;;;13.03;59.12
31911;BME280;18457;52.432;16.914;2023-04-08T12:51:53;101390.05;;;13.18;59.40
31911;BME280;18457;52.432;16.914;2023-04-08T12:54:25;101391.69;;;13.27;59.47
31911;BME280;18457;52.432;16.914;2023-04-08T12:56:57;101389.77;;;13.32;58.11
31911;BME280;18457;52.432;16.914;2023-04-08T12:59:29;101387.75;;;13.42;57.85
31911;BME280;18457;52.432;16.914;2023-04-08T13:02:01;101389.91;;;13.52;58.40
31911;BME280;18457;52.432;16.914;2023-04-08T13:04:33;101382.48;;;13.61;58.25
31911;BME280;18457;52.432;16.914;2023-04-08T13:07:05;101390.23;;;13.72;57.69
31911;BME280;18457;52.432;16.914;2023-04-08T13:09:37;101380.80;;;13.54;58.43
31911;BME280;18457;52.432;16.914;2023-04-08T13:12:09;101380.92;;;13.48;59.06
31911;BME280;18457;52.432;16.914;2023-04-08T13:14:42;101382.09;;;13.44;58.53
31911;BME280;18457;52.432;16.914;2023-04-08T13:17:14;101379.13;;;13.47;57.71